地図

経路データ

SID SEASON NUMBER BASIN SUBBASIN NAME ISO_TIME NATURE LAT LON WMO_WIND WMO_PRES WMO_AGENCY TRACK_TYPE DIST2LAND LANDFALL IFLAG USA_AGENCY USA_ATCF_ID USA_LAT USA_LON USA_RECORD USA_STATUS USA_WIND USA_PRES USA_SSHS USA_R34_NE USA_R34_SE USA_R34_SW USA_R34_NW USA_R50_NE USA_R50_SE USA_R50_SW USA_R50_NW USA_R64_NE USA_R64_SE USA_R64_SW USA_R64_NW USA_POCI USA_ROCI USA_RMW USA_EYE TOKYO_LAT TOKYO_LON TOKYO_GRADE TOKYO_WIND TOKYO_PRES TOKYO_R50_DIR TOKYO_R50_LONG TOKYO_R50_SHORT TOKYO_R30_DIR TOKYO_R30_LONG TOKYO_R30_SHORT TOKYO_LAND CMA_LAT CMA_LON CMA_CAT CMA_WIND CMA_PRES HKO_LAT HKO_LON HKO_CAT HKO_WIND HKO_PRES NEWDELHI_LAT NEWDELHI_LON NEWDELHI_GRADE NEWDELHI_WIND NEWDELHI_PRES NEWDELHI_CI NEWDELHI_DP NEWDELHI_POCI REUNION_LAT REUNION_LON REUNION_TYPE REUNION_WIND REUNION_PRES REUNION_TNUM REUNION_CI REUNION_RMW REUNION_R34_NE REUNION_R34_SE REUNION_R34_SW REUNION_R34_NW REUNION_R50_NE REUNION_R50_SE REUNION_R50_SW REUNION_R50_NW REUNION_R64_NE REUNION_R64_SE REUNION_R64_SW REUNION_R64_NW BOM_LAT BOM_LON BOM_TYPE BOM_WIND BOM_PRES BOM_TNUM BOM_CI BOM_RMW BOM_R34_NE BOM_R34_SE BOM_R34_SW BOM_R34_NW BOM_R50_NE BOM_R50_SE BOM_R50_SW BOM_R50_NW BOM_R64_NE BOM_R64_SE BOM_R64_SW BOM_R64_NW BOM_ROCI BOM_POCI BOM_EYE BOM_POS_METHOD BOM_PRES_METHOD NADI_LAT NADI_LON NADI_CAT NADI_WIND NADI_PRES WELLINGTON_LAT WELLINGTON_LON WELLINGTON_WIND WELLINGTON_PRES DS824_LAT DS824_LON DS824_STAGE DS824_WIND DS824_PRES TD9636_LAT TD9636_LON TD9636_STAGE TD9636_WIND TD9636_PRES TD9635_LAT TD9635_LON TD9635_WIND TD9635_PRES TD9635_ROCI NEUMANN_LAT NEUMANN_LON NEUMANN_CLASS NEUMANN_WIND NEUMANN_PRES MLC_LAT MLC_LON MLC_CLASS MLC_WIND MLC_PRES USA_GUST BOM_GUST BOM_GUST_PER REUNION_GUST REUNION_GUST_PER USA_SEAHGT USA_SEARAD_NE USA_SEARAD_SE USA_SEARAD_SW USA_SEARAD_NW STORM_SPEED STORM_DIR
1981303N25313 1981 97 NA NA JOSE 1981-10-29 12:00:00 TS 25.0000 -47.5000 25 1010 hurdat_atl main 2007 2007 O_____________ hurdat_atl AL201981 25.0000 -47.5000 TD 25 1010 -1 15 14
1981303N25313 1981 97 NA NA JOSE 1981-10-29 15:00:00 TS 25.7026 -47.3054 main 2051 2051 P_____________ AL201981 25.7026 -47.3054 TD 27 1009 -1 15 14
1981303N25313 1981 97 NA NA JOSE 1981-10-29 18:00:00 TS 26.4000 -47.1000 30 1008 hurdat_atl main 2097 2097 O_____________ hurdat_atl AL201981 26.4000 -47.1000 TD 30 1008 -1 14 16
1981303N25313 1981 97 NA NA JOSE 1981-10-29 21:00:00 TS 27.0799 -46.8722 main 2145 2145 P_____________ AL201981 27.0799 -46.8722 TD 32 1007 -1 14 19
1981303N25313 1981 97 NA NA JOSE 1981-10-30 00:00:00 TS 27.7000 -46.6000 35 1006 hurdat_atl main 2182 2135 O_____________ hurdat_atl AL201981 27.7000 -46.6000 TS 35 1006 0 13 25
1981303N25313 1981 97 NA NA JOSE 1981-10-30 03:00:00 TS 28.2300 -46.2648 main 2135 2091 P_____________ AL201981 28.2300 -46.2648 TS 35 1005 0 12 32
1981303N25313 1981 97 NA NA JOSE 1981-10-30 06:00:00 TS 28.7000 -45.9000 35 1004 hurdat_atl main 2091 2046 O_____________ hurdat_atl AL201981 28.7000 -45.9000 TS 35 1004 0 11 33
1981303N25313 1981 97 NA NA JOSE 1981-10-30 09:00:00 TS 29.1799 -45.5499 main 2048 2014 P_____________ AL201981 29.1799 -45.5499 TS 35 1004 0 11 34
1981303N25313 1981 97 NA NA JOSE 1981-10-30 12:00:00 TS 29.6000 -45.2000 35 1004 hurdat_atl main 2014 1992 O_____________ hurdat_atl AL201981 29.6000 -45.2000 TS 35 1004 0 10 39
1981303N25313 1981 97 NA NA JOSE 1981-10-30 15:00:00 TS 29.9300 -44.8422 main 1995 1970 P_____________ AL201981 29.9300 -44.8422 TS 35 1003 0 9 45
1981303N25313 1981 97 NA NA JOSE 1981-10-30 18:00:00 TS 30.2000 -44.5000 35 1002 hurdat_atl main 1973 1951 O_____________ hurdat_atl AL201981 30.2000 -44.5000 TS 35 1002 0 8 46
1981303N25313 1981 97 NA NA JOSE 1981-10-30 21:00:00 TS 30.4648 -44.2072 main 1951 1937 P_____________ AL201981 30.4648 -44.2072 TS 35 1002 0 7 46
1981303N25313 1981 97 NA NA JOSE 1981-10-31 00:00:00 TS 30.7000 -43.9000 35 1002 hurdat_atl main 1941 1931 O_____________ hurdat_atl AL201981 30.7000 -43.9000 TS 35 1002 0 7 53
1981303N25313 1981 97 NA NA JOSE 1981-10-31 03:00:00 TS 30.9074 -43.5223 main 1935 1925 P_____________ AL201981 30.9074 -43.5223 TS 37 1001 0 8 60
1981303N25313 1981 97 NA NA JOSE 1981-10-31 06:00:00 TS 31.1000 -43.1000 40 1000 hurdat_atl main 1929 1920 O_____________ hurdat_atl AL201981 31.1000 -43.1000 TS 40 1000 0 8 61
1981303N25313 1981 97 NA NA JOSE 1981-10-31 09:00:00 TS 31.2994 -42.6946 main 1924 1918 P_____________ AL201981 31.2994 -42.6946 TS 42 999 0 9 63
1981303N25313 1981 97 NA NA JOSE 1981-10-31 12:00:00 TS 31.5000 -42.2000 45 998 hurdat_atl main 1925 1923 O_____________ hurdat_atl AL201981 31.5000 -42.2000 TS 45 998 0 10 68
1981303N25313 1981 97 NA NA JOSE 1981-10-31 15:00:00 TS 31.6846 -41.5668 main 1930 1930 P_____________ AL201981 31.6846 -41.5668 TS 45 998 0 13 71
1981303N25313 1981 97 NA NA JOSE 1981-10-31 18:00:00 TS 31.9000 -40.8000 45 998 hurdat_atl main 1946 1946 O_____________ hurdat_atl AL201981 31.9000 -40.8000 TS 45 998 0 15 72
1981303N25313 1981 97 NA NA JOSE 1981-10-31 21:00:00 TS 32.1397 -39.9434 main 1970 1960 P_____________ AL201981 32.1397 -39.9434 TS 42 998 0 16 69
1981303N25313 1981 97 NA NA JOSE 1981-11-01 00:00:00 TS 32.5000 -39.0000 40 998 hurdat_atl main 1977 1974 O_____________ hurdat_atl AL201981 32.5000 -39.0000 TS 40 998 0 18 61
1981303N25313 1981 97 NA NA JOSE 1981-11-01 03:00:00 TS 33.0244 -38.0215 main 1984 1972 P_____________ AL201981 33.0244 -38.0215 TS 40 998 0 21 54
1981303N25313 1981 97 NA NA JOSE 1981-11-01 06:00:00 TS 33.7000 -37.0000 40 998 hurdat_atl main 1978 1945 O_____________ hurdat_atl AL201981 33.7000 -37.0000 TS 40 998 0 22 51
1981303N25313 1981 97 NA NA JOSE 1981-11-01 09:00:00 TS 34.4005 -36.0042 main 1939 1878 P_____________ AL201981 34.4005 -36.0042 TS 37 998 0 24 47
1981303N25313 1981 97 NA NA JOSE 1981-11-01 12:00:00 TS 35.3000 -34.9000 35 998 hurdat_atl main 1873 1807 O_____________ hurdat_atl AL201981 35.3000 -34.9000 TS 35 998 0 28 45
1981303N25313 1981 97 NA NA JOSE 1981-11-01 15:00:00 TS 36.3936 -33.5338 main 1803 1767 P_____________ AL201981 36.3936 -33.5338 TS 32 998 -1 34 42
1981303N25313 1981 97 NA NA JOSE 1981-11-01 18:00:00 SS 37.8000 -32.1000 30 998 hurdat_atl main 1770 1764 O_____________ hurdat_atl AL201981 37.8000 -32.1000 SD 30 998 -2 38 35
1981303N25313 1981 97 NA NA JOSE 1981-11-01 21:00:00 SS 39.5535 -30.7772 main 1797 1671 P_____________ AL201981 39.5535 -30.7772 SD 27 -2 42 28
1981303N25313 1981 97 NA NA JOSE 1981-11-02 00:00:00 SS 41.5000 -29.5000 25 hurdat_atl main 1661 O_____________ hurdat_atl AL201981 41.5000 -29.5000 SD 25 -2 43 26

IBTrACS Databaseについて

本データベースは、米国NOAAが公開する1842年以降の世界の熱帯低気圧のベストトラックデータアーカイブInternational Best Track Archive for Climate Stewardship (IBTrACS)を、ウェブで閲覧しやすい形式に変換したものです。

最終更新日:2021-11-26